Impacts TAF Board INFO
FOR SITUATIONAL AWARENESS. NOT TO BE USED FOR FLIGHT PLANNING PURPOSES.
IDs:

KBOS - Boston/Logan Intl, MA, US

Issued at 1237 UTC 25 Feb 2018
Updated at 1337 UTC 25 Feb 2018
Potential Impact None Slight Moderate High
Time1244Z 25/14Z 25/15Z 25/16Z 25/17Z 25/18Z 25/19Z 25/20Z 25/21Z 25/22Z 25/23Z 26/00Z 26/01Z 26/02Z>>
Type OBS PRVL PRVL PRVL PRVL PRVL PRVL PRVL PRVL PRVL PRVL PRVL PRVL PRVL
VIS 6 6 3 3 2 2 2 2 2 2 2 2 2 3
CIG 50 25 10 10 8 8 8 8 8 8 3 3 3 8
Cover OVC OVC OVC OVC OVC OVC OVC OVC OVC OVC OVC OVC OVC OVC
FltCat VFR MVFR MVFR MVFR IFR IFR IFR IFR IFR IFR LIFR LIFR LIFR IFR
WX -RA -RA BR -RA BR -RA BR -RA BR -RA BR -RA BR -RA BR -RA BR -RA BR BR BR BR BR
WDir 90 90 110 110 100 100 100 100 100 100 80 80 80 360
WSpd 15 13 13 13 13 13 13 13 13 13 9 9 9 10
WGst -- -- 25 25 25 25 25 25 25 25 -- -- -- --

Raw TAF
KBOS 251237Z 2513/2618 09013KT 6SM -RA BR OVC025
  FM251500 11013G25KT 3SM -RA BR OVC010
  FM251700 10013G25KT 2SM -RA BR OVC008
  FM252300 08009KT 2SM BR OVC003
  FM260200 36010KT 3SM BR OVC008
  FM260600 29006KT P6SM BKN060


Raw METAR
KBOS 251244Z 09015KT 6SM -RA SCT024 BKN050 OVC085 03/01 A3026 RMK AO2 PLE1158 P0001 T00330006
KBOS 251200Z 08014KT 9SM -RA BKN025 OVC070 03/00 A3028 RMK AO2 PLE1158 P0000 T00280000
KBOS 251154Z 07014KT 9SM -PLRA BKN025 BKN034 OVC075 03/00 A3028 RMK AO2 RAB09PLB20 SLP252 P0004 60004 70004 T00280000 10044 20028 55021
KBOS 251150Z 08015KT 8SM -PLRA BKN025 BKN055 OVC075 03/00 A3028 RMK AO2 RAB09PLB20 P0003
KBOS 251137Z 07014KT 8SM -PLRA SCT025 BKN041 OVC075 03/00 A3028 RMK AO2 RAB09PLB20 PRESFR P0002 T00280000
KBOS 251121Z 08016KT 6SM PLRA BKN028 OVC038 03/00 A3030 RMK AO2 RAB09PLB20 PRESFR P0001 T00330000
KBOS 251054Z 07013KT 10SM BKN028 OVC048 04/M01 A3033 RMK AO2 SLP271 T00391011
KBOS 251049Z 07011KT 10SM BKN029 OVC048 04/M01 A3034 RMK AO2

METAR Board
Radar Display
Forecast Discussion

FOR SITUATIONAL AWARENESS. NOT TO BE USED FOR FLIGHT PLANNING PURPOSES.